Time;durP1;ratioP1;P1;durP2;ratioP2;P2;SDS_P1;SDS_P2;PMS_P1;PMS_P2;Temp;Humidity;BMP_temperature;BMP_pressure;BME280_temperature;BME280_humidity;BME280_pressure;Samples;Min_cycle;Max_cycle;Signal;HPM_P1;HPM_P2
2021/12/29 00:01:27;;;;;;;292.60;235.75;;;20.40;48.50;;;;;;4339478;61;21520;-35
2021/12/29 00:06:28;;;;;;;291.23;227.57;;;20.30;48.40;;;;;;4369654;60;21132;-36
2021/12/29 00:11:29;;;;;;;284.08;227.93;;;20.30;48.30;;;;;;4341532;60;21052;-31
2021/12/29 00:16:34;;;;;;;286.55;223.35;;;20.40;48.40;;;;;;4364330;60;21628;-33
2021/12/29 00:21:36;;;;;;;281.23;222.15;;;20.40;48.40;;;;;;4344597;60;21693;-35
2021/12/29 00:26:37;;;;;;;278.80;222.75;;;20.30;48.30;;;;;;4368686;60;21549;-36
2021/12/29 00:31:38;;;;;;;280.58;220.35;;;20.30;48.30;;;;;;4368988;60;21044;-36
2021/12/29 00:36:39;;;;;;;275.00;211.68;;;20.30;48.20;;;;;;4355525;60;21127;-36
2021/12/29 00:41:40;;;;;;;281.85;223.75;;;20.30;48.20;;;;;;4338306;64;21086;-37
2021/12/29 00:46:41;;;;;;;273.62;216.20;;;20.30;48.20;;;;;;4372654;60;21518;-36
2021/12/29 00:51:42;;;;;;;277.23;218.85;;;20.30;48.20;;;;;;4343738;60;21054;-35
2021/12/29 00:56:44;;;;;;;273.75;218.50;;;20.30;48.20;;;;;;4352924;60;21120;-37
2021/12/29 01:01:48;;;;;;;273.92;218.23;;;20.30;48.10;;;;;;4344770;60;21593;-36
2021/12/29 01:06:49;;;;;;;272.08;216.18;;;20.30;48.10;;;;;;4344774;60;21063;-35
2021/12/29 01:11:54;;;;;;;272.23;212.23;;;20.30;48.10;;;;;;4342992;60;21047;-35
2021/12/29 01:16:56;;;;;;;274.75;213.82;;;20.30;48.10;;;;;;4359024;60;21550;-36
2021/12/29 01:22:00;;;;;;;277.38;216.75;;;20.30;48.00;;;;;;4374500;60;21044;-36
2021/12/29 01:27:01;;;;;;;271.95;211.70;;;20.30;48.00;;;;;;4338760;64;21043;-35
2021/12/29 01:32:02;;;;;;;259.58;205.70;;;20.30;48.00;;;;;;4356771;60;21571;-37
2021/12/29 01:37:03;;;;;;;272.73;211.57;;;20.30;48.00;;;;;;4338820;64;21064;-36
2021/12/29 01:42:05;;;;;;;256.50;200.05;;;20.30;48.00;;;;;;4355389;60;21103;-36
2021/12/29 01:47:06;;;;;;;247.85;191.15;;;20.30;47.90;;;;;;4354972;60;21105;-35
2021/12/29 01:52:13;;;;;;;260.60;201.68;;;20.30;48.00;;;;;;4345061;60;21609;-36
2021/12/29 01:57:14;;;;;;;266.92;206.13;;;20.30;47.90;;;;;;4346956;60;21562;-36
2021/12/29 02:02:15;;;;;;;253.90;194.02;;;20.30;47.90;;;;;;4339008;64;21051;-37
2021/12/29 02:07:16;;;;;;;251.90;195.25;;;20.30;47.90;;;;;;4338370;64;21067;-35
2021/12/29 02:12:18;;;;;;;253.75;202.07;;;20.30;47.90;;;;;;4378255;60;21051;-37
2021/12/29 02:17:19;;;;;;;247.73;192.57;;;20.30;47.90;;;;;;4346855;60;21637;-36
2021/12/29 02:22:44;;;;;;;253.23;198.45;;;20.30;47.90;;;;;;4339225;60;21048;-36
2021/12/29 02:27:54;;;;;;;251.55;196.45;;;20.30;47.90;;;;;;4338911;64;21526;-36
2021/12/29 02:32:58;;;;;;;253.73;194.13;;;20.30;47.90;;;;;;4358160;60;21069;-35
2021/12/29 02:38:00;;;;;;;248.73;193.95;;;20.30;47.90;;;;;;4339476;64;21605;-35
2021/12/29 02:43:01;;;;;;;245.88;189.55;;;20.30;47.90;;;;;;4338957;61;21538;-37
2021/12/29 02:48:02;;;;;;;251.90;197.18;;;20.30;47.90;;;;;;4345351;60;21051;-36
2021/12/29 02:53:03;;;;;;;241.90;188.35;;;20.20;47.80;;;;;;4357736;60;21330;-36
2021/12/29 02:58:04;;;;;;;237.55;181.57;;;20.20;47.80;;;;;;4341819;60;21103;-36
2021/12/29 03:03:17;;;;;;;246.32;187.82;;;20.20;47.70;;;;;;4338496;64;21137;-37
2021/12/29 03:08:19;;;;;;;237.15;181.63;;;20.30;47.80;;;;;;4345501;60;21129;-36
2021/12/29 03:13:28;;;;;;;240.23;185.52;;;20.20;47.80;;;;;;4344103;60;21024;-36
2021/12/29 03:18:29;;;;;;;237.25;183.68;;;20.20;47.80;;;;;;4374841;60;21569;-34
2021/12/29 03:23:31;;;;;;;230.00;170.20;;;20.20;47.80;;;;;;4338444;64;21063;-34
2021/12/29 03:28:32;;;;;;;234.95;179.05;;;20.20;47.80;;;;;;4354817;60;21074;-35
2021/12/29 03:33:33;;;;;;;231.75;176.70;;;20.20;47.80;;;;;;4356855;60;21039;-32
2021/12/29 03:38:37;;;;;;;231.48;177.45;;;20.20;47.70;;;;;;4354774;60;21949;-35
2021/12/29 03:43:40;;;;;;;228.60;178.70;;;20.20;47.70;;;;;;4350900;60;21063;-35
2021/12/29 03:48:43;;;;;;;233.87;179.32;;;20.20;47.70;;;;;;4339253;64;21509;-34
2021/12/29 03:53:44;;;;;;;222.40;171.45;;;20.20;47.80;;;;;;4432871;60;21122;-38
2021/12/29 03:58:45;;;;;;;219.15;168.35;;;20.20;47.70;;;;;;4366804;60;21060;-35
2021/12/29 04:03:46;;;;;;;227.18;173.13;;;20.20;47.70;;;;;;4338698;64;21060;-35
2021/12/29 04:08:48;;;;;;;218.35;170.10;;;20.20;47.70;;;;;;4339305;61;21075;-35
2021/12/29 04:13:50;;;;;;;213.98;163.82;;;20.20;47.70;;;;;;4346704;60;21059;-36
2021/12/29 04:19:08;;;;;;;221.30;167.35;;;20.20;48.30;;;;;;4344409;60;21534;-35
2021/12/29 04:24:09;;;;;;;214.00;161.73;;;20.20;47.70;;;;;;4357388;60;21561;-33
2021/12/29 04:29:13;;;;;;;212.75;161.60;;;20.20;47.70;;;;;;4367322;60;21546;-34
2021/12/29 04:34:14;;;;;;;210.65;157.18;;;20.20;47.80;;;;;;4386648;60;22192;-36
2021/12/29 04:39:15;;;;;;;209.10;158.02;;;20.20;47.70;;;;;;4345746;60;21071;-35
2021/12/29 04:44:16;;;;;;;210.43;160.10;;;20.20;47.70;;;;;;4346493;60;21234;-37
2021/12/29 04:49:22;;;;;;;203.15;154.95;;;20.20;47.80;;;;;;4340262;60;21112;-31
2021/12/29 04:54:23;;;;;;;204.65;154.02;;;20.20;47.80;;;;;;4342319;60;21687;-32
2021/12/29 04:59:26;;;;;;;212.55;161.48;;;20.20;47.80;;;;;;4352254;60;21059;-35
2021/12/29 05:04:33;;;;;;;202.45;153.07;;;20.10;47.80;;;;;;4407597;60;21060;-35
2021/12/29 05:09:34;;;;;;;202.23;156.13;;;20.20;47.90;;;;;;4358196;60;21633;-31
2021/12/29 05:14:35;;;;;;;199.70;150.90;;;20.20;48.00;;;;;;4359624;60;21057;-35
2021/12/29 05:19:36;;;;;;;195.32;147.73;;;20.10;47.90;;;;;;4378497;60;21151;-34
2021/12/29 05:24:38;;;;;;;199.55;149.05;;;20.20;47.90;;;;;;4347943;60;21107;-36
2021/12/29 05:29:39;;;;;;;192.68;146.40;;;20.20;48.00;;;;;;4409325;60;21505;-34
2021/12/29 05:34:40;;;;;;;197.85;150.23;;;20.20;48.00;;;;;;4342899;60;21112;-35
2021/12/29 05:39:41;;;;;;;192.23;145.30;;;20.20;48.00;;;;;;4377226;60;21064;-34
2021/12/29 05:44:41;;;;;;;188.85;143.62;;;20.20;48.10;;;;;;4354461;60;21108;-36
2021/12/29 05:49:42;;;;;;;190.95;144.57;;;20.20;48.10;;;;;;4365307;60;21051;-35
2021/12/29 05:54:45;;;;;;;190.57;146.15;;;20.20;48.20;;;;;;4354262;60;21127;-36
2021/12/29 05:59:45;;;;;;;190.60;145.15;;;20.10;48.10;;;;;;4344671;60;21597;-36
2021/12/29 06:04:46;;;;;;;187.90;143.43;;;20.20;48.20;;;;;;4341598;60;21131;-35
2021/12/29 06:09:47;;;;;;;186.62;141.88;;;20.20;48.30;;;;;;4369256;60;21067;-34
2021/12/29 06:14:48;;;;;;;183.37;139.75;;;20.20;48.30;;;;;;4347667;60;21172;-37
2021/12/29 06:19:49;;;;;;;185.70;141.45;;;20.20;48.30;;;;;;4358384;60;21552;-36
2021/12/29 06:24:52;;;;;;;185.88;141.12;;;20.10;48.30;;;;;;4339316;60;21059;-36
2021/12/29 06:29:53;;;;;;;184.87;139.77;;;20.10;48.30;;;;;;4339809;64;21608;-35
2021/12/29 06:34:55;;;;;;;179.40;135.77;;;20.20;49.00;;;;;;4357552;60;21128;-34
2021/12/29 06:39:55;;;;;;;175.45;135.25;;;20.20;48.40;;;;;;4390349;60;21617;-33
2021/12/29 06:44:57;;;;;;;181.52;136.70;;;20.20;48.40;;;;;;4357177;60;21075;-34
2021/12/29 06:49:58;;;;;;;170.32;132.18;;;20.20;48.40;;;;;;4390046;60;21585;-32
2021/12/29 06:54:59;;;;;;;180.43;138.12;;;20.20;48.40;;;;;;4346597;60;21070;-32
2021/12/29 07:00:00;;;;;;;184.00;139.80;;;20.10;48.40;;;;;;4347618;60;21536;-33
2021/12/29 07:05:01;;;;;;;177.20;134.02;;;20.10;48.40;;;;;;4338180;64;21108;-35
2021/12/29 07:10:04;;;;;;;174.48;134.27;;;20.10;48.40;;;;;;4362559;60;21594;-31
2021/12/29 07:15:06;;;;;;;171.35;130.77;;;20.10;48.40;;;;;;4339315;64;21047;-34
2021/12/29 07:20:08;;;;;;;178.48;134.18;;;20.10;48.50;;;;;;4362383;60;21088;-35
2021/12/29 07:25:09;;;;;;;177.30;136.75;;;20.10;48.40;;;;;;4364608;60;21151;-37
2021/12/29 07:30:11;;;;;;;175.50;135.02;;;20.10;48.40;;;;;;4357614;60;21135;-33
2021/12/29 07:35:12;;;;;;;177.73;136.12;;;20.10;48.40;;;;;;4355657;60;21521;-35
2021/12/29 07:40:13;;;;;;;175.27;133.43;;;20.10;48.40;;;;;;4348249;60;21603;-36
2021/12/29 07:45:15;;;;;;;164.30;127.15;;;20.10;48.40;;;;;;4339443;60;21170;-35
2021/12/29 07:50:18;;;;;;;172.00;134.07;;;20.10;48.50;;;;;;4339477;64;21060;-34
2021/12/29 07:55:19;;;;;;;173.00;134.27;;;20.10;48.50;;;;;;4365994;60;21092;-34
2021/12/29 08:00:20;;;;;;;174.15;134.75;;;20.10;48.50;;;;;;4360020;60;21116;-36
2021/12/29 08:05:22;;;;;;;168.60;131.27;;;20.10;48.50;;;;;;4352022;60;21064;-37
2021/12/29 08:10:23;;;;;;;176.12;134.75;;;20.10;48.50;;;;;;4346673;60;21561;-34
2021/12/29 08:15:24;;;;;;;170.65;129.93;;;20.10;48.60;;;;;;4357042;60;21121;-34
2021/12/29 08:20:25;;;;;;;164.95;129.23;;;20.20;49.10;;;;;;4339433;60;21228;-34
2021/12/29 08:25:27;;;;;;;170.43;130.98;;;20.30;49.60;;;;;;4339294;64;21536;-35
2021/12/29 08:30:28;;;;;;;165.73;129.60;;;20.30;49.50;;;;;;4338745;61;21035;-35
2021/12/29 08:35:29;;;;;;;164.70;128.15;;;20.40;49.60;;;;;;4344687;60;21064;-35
2021/12/29 08:40:30;;;;;;;172.70;131.77;;;20.50;49.70;;;;;;4341581;60;21099;-35
2021/12/29 08:45:34;;;;;;;169.48;132.63;;;20.60;49.70;;;;;;4354625;60;21569;-35
2021/12/29 08:50:34;;;;;;;163.23;127.47;;;20.70;49.80;;;;;;4344177;60;21517;-33
2021/12/29 08:55:37;;;;;;;169.05;130.52;;;20.70;49.80;;;;;;4343957;60;21090;-36
2021/12/29 09:00:38;;;;;;;166.43;130.50;;;20.80;50.00;;;;;;4345300;60;21075;-34
2021/12/29 09:05:39;;;;;;;175.85;136.02;;;20.80;49.90;;;;;;4338697;64;21052;-31
2021/12/29 09:10:41;;;;;;;173.98;129.85;;;20.90;49.90;;;;;;4338425;64;21518;-36
2021/12/29 09:15:42;;;;;;;173.02;133.02;;;20.90;50.00;;;;;;4352632;60;21586;-35
2021/12/29 09:20:45;;;;;;;177.80;137.80;;;21.00;49.80;;;;;;4379705;60;21088;-34
2021/12/29 09:25:47;;;;;;;176.25;136.55;;;21.00;49.70;;;;;;4426049;60;21043;-36
2021/12/29 09:30:50;;;;;;;178.65;136.68;;;21.00;49.60;;;;;;4338839;64;21080;-36
2021/12/29 09:35:57;;;;;;;176.57;137.48;;;21.00;49.50;;;;;;4367805;60;21142;-36
2021/12/29 09:40:58;;;;;;;177.00;135.20;;;21.00;49.30;;;;;;4354490;60;21048;-33
2021/12/29 09:45:59;;;;;;;182.30;139.12;;;21.10;49.30;;;;;;4338686;60;21678;-34
2021/12/29 09:51:01;;;;;;;180.48;139.62;;;21.10;49.60;;;;;;4371574;60;21102;-34
2021/12/29 09:56:02;;;;;;;183.95;138.07;;;21.20;49.90;;;;;;4340474;60;21119;-36
2021/12/29 10:01:05;;;;;;;179.93;135.48;;;21.20;49.90;;;;;;4348378;60;21084;-34
2021/12/29 10:06:09;;;;;;;180.02;141.20;;;21.30;50.20;;;;;;4340314;60;21518;-35
2021/12/29 10:11:27;;;;;;;185.60;143.50;;;21.40;50.50;;;;;;4363877;60;21063;-36
2021/12/29 10:16:29;;;;;;;184.95;137.68;;;21.40;50.70;;;;;;4362335;60;21086;-34
2021/12/29 10:21:31;;;;;;;185.90;142.98;;;21.40;50.90;;;;;;4353601;60;21489;-36
2021/12/29 10:26:35;;;;;;;192.07;145.27;;;21.50;51.10;;;;;;4350205;60;21609;-35
2021/12/29 10:31:40;;;;;;;185.75;140.62;;;21.50;51.30;;;;;;4351537;60;21035;-32
2021/12/29 10:36:50;;;;;;;186.68;137.82;;;21.50;51.40;;;;;;4350306;60;21052;-32
2021/12/29 10:42:02;;;;;;;193.43;145.68;;;21.60;51.50;;;;;;4338446;60;21116;-35
2021/12/29 10:47:22;;;;;;;189.35;140.12;;;21.60;52.00;;;;;;4354900;60;21625;-35
2021/12/29 10:52:36;;;;;;;189.18;144.82;;;21.60;51.90;;;;;;4343800;60;21036;-33
2021/12/29 10:57:37;;;;;;;192.55;148.23;;;21.70;52.10;;;;;;4346438;60;21020;-32
2021/12/29 11:02:38;;;;;;;184.82;139.52;;;21.70;52.20;;;;;;4349046;60;21116;-33
2021/12/29 11:07:40;;;;;;;189.40;145.40;;;21.70;52.50;;;;;;4338424;64;21132;-33
2021/12/29 11:12:54;;;;;;;194.32;147.48;;;21.70;52.60;;;;;;4349140;60;21145;-37
2021/12/29 11:17:59;;;;;;;199.35;147.98;;;21.80;52.80;;;;;;4374008;60;22421;-34
2021/12/29 11:23:15;;;;;;;193.77;148.68;;;21.80;52.90;;;;;;4339230;60;21059;-35
2021/12/29 11:28:30;;;;;;;190.60;145.00;;;21.80;52.90;;;;;;4348605;60;21093;-36
2021/12/29 11:33:33;;;;;;;195.07;145.45;;;21.80;53.00;;;;;;4368183;60;21032;-35
2021/12/29 11:38:34;;;;;;;183.45;141.20;;;21.80;53.10;;;;;;4357011;60;21082;-34
2021/12/29 11:43:35;;;;;;;195.12;146.43;;;21.90;53.30;;;;;;4344328;60;21051;-35
2021/12/29 11:48:36;;;;;;;207.05;155.82;;;21.90;53.00;;;;;;4361920;60;21167;-36
2021/12/29 11:53:51;;;;;;;196.27;148.62;;;21.90;52.80;;;;;;4341076;60;21077;-35
2021/12/29 11:59:03;;;;;;;192.82;147.10;;;21.90;53.00;;;;;;4338342;64;21132;-37
2021/12/29 12:04:11;;;;;;;196.02;148.05;;;21.90;53.10;;;;;;4337911;64;21088;-36
2021/12/29 12:09:25;;;;;;;192.93;146.75;;;21.90;53.20;;;;;;4348272;60;21572;-35
2021/12/29 12:14:31;;;;;;;192.75;145.57;;;22.00;53.40;;;;;;4338788;64;21608;-31
2021/12/29 12:19:32;;;;;;;184.45;136.37;;;22.00;53.40;;;;;;4338927;64;21167;-33
2021/12/29 12:24:36;;;;;;;197.37;149.02;;;22.00;53.40;;;;;;4341867;60;21079;-36
2021/12/29 12:29:39;;;;;;;193.40;145.62;;;22.00;53.60;;;;;;4347539;60;21138;-35
2021/12/29 12:34:54;;;;;;;188.05;143.05;;;22.00;53.70;;;;;;4357692;60;21138;-35
2021/12/29 12:40:06;;;;;;;184.95;142.02;;;22.10;53.80;;;;;;4338924;64;21058;-33
2021/12/29 12:45:21;;;;;;;199.77;151.63;;;22.10;53.80;;;;;;4365063;60;21174;-33
2021/12/29 12:50:25;;;;;;;193.32;147.00;;;22.10;53.50;;;;;;4352444;60;21514;-36
2021/12/29 12:55:28;;;;;;;201.27;148.62;;;22.00;53.40;;;;;;4338231;64;21075;-33
2021/12/29 13:00:29;;;;;;;205.65;152.82;;;22.00;53.30;;;;;;4379870;60;21067;-35
2021/12/29 13:05:38;;;;;;;200.38;155.77;;;22.00;53.10;;;;;;4340301;60;21231;-35
2021/12/29 13:11:08;;;;;;;206.07;154.40;;;22.00;53.00;;;;;;4377511;60;22339;-34
2021/12/29 13:16:24;;;;;;;203.32;151.60;;;21.90;52.80;;;;;;4376919;60;21056;-36
2021/12/29 13:21:36;;;;;;;216.50;164.02;;;21.90;52.70;;;;;;4358769;60;21187;-34
2021/12/29 13:26:40;;;;;;;213.55;155.82;;;21.90;52.60;;;;;;4344227;60;21514;-36
2021/12/29 13:31:41;;;;;;;212.80;159.23;;;21.90;52.50;;;;;;4355077;60;21542;-33
2021/12/29 13:36:42;;;;;;;207.52;153.75;;;22.00;52.70;;;;;;4339160;60;21122;-32
2021/12/29 13:41:45;;;;;;;222.02;163.55;;;22.00;52.80;;;;;;4349455;60;21582;-34
2021/12/29 13:46:48;;;;;;;208.98;158.50;;;22.00;53.00;;;;;;4359390;60;21077;-34
2021/12/29 13:51:49;;;;;;;215.18;160.73;;;22.00;53.20;;;;;;4350566;60;21577;-35
2021/12/29 13:56:53;;;;;;;216.38;160.55;;;22.00;53.40;;;;;;4345509;60;21035;-36
2021/12/29 14:01:56;;;;;;;220.93;163.55;;;22.00;53.60;;;;;;4392864;60;22154;-37
2021/12/29 14:07:03;;;;;;;220.23;165.00;;;22.00;53.80;;;;;;4357645;60;21525;-30
2021/12/29 14:12:06;;;;;;;214.90;162.43;;;22.00;54.10;;;;;;4341142;60;21493;-36
2021/12/29 14:17:17;;;;;;;220.30;159.93;;;22.00;54.30;;;;;;4370506;60;21087;-35
2021/12/29 14:22:31;;;;;;;214.95;158.27;;;22.00;54.40;;;;;;4370484;60;21589;-35
2021/12/29 14:27:34;;;;;;;219.02;158.45;;;22.00;54.80;;;;;;4391213;60;21576;-36
2021/12/29 14:32:35;;;;;;;224.60;170.75;;;21.90;54.60;;;;;;4349960;60;21505;-35
2021/12/29 14:37:36;;;;;;;223.70;170.62;;;21.90;54.80;;;;;;4341435;60;21461;-36
2021/12/29 14:42:40;;;;;;;223.40;169.18;;;21.90;54.70;;;;;;4344805;60;21083;-39
2021/12/29 14:47:46;;;;;;;215.85;160.37;;;21.80;54.50;;;;;;4346134;60;21553;-37
2021/12/29 14:52:48;;;;;;;226.25;172.13;;;21.80;54.50;;;;;;4397163;60;21099;-35
2021/12/29 14:57:50;;;;;;;228.95;175.27;;;21.70;54.40;;;;;;4361040;60;21043;-36
2021/12/29 15:03:00;;;;;;;278.92;213.68;;;21.70;54.40;;;;;;4365080;60;21550;-35
2021/12/29 15:08:03;;;;;;;299.52;230.15;;;21.70;53.40;;;;;;4345398;60;21530;-37
2021/12/29 15:13:11;;;;;;;317.92;233.15;;;21.60;53.10;;;;;;4367571;60;21108;-37
2021/12/29 15:18:15;;;;;;;333.83;259.30;;;21.60;52.70;;;;;;4395199;60;21640;-35
2021/12/29 15:23:18;;;;;;;330.37;252.52;;;21.60;52.70;;;;;;4351897;60;21239;-38
2021/12/29 15:28:20;;;;;;;336.52;255.90;;;21.50;52.60;;;;;;4339270;64;21044;-37
2021/12/29 15:33:21;;;;;;;338.77;253.70;;;21.50;52.80;;;;;;4339814;60;21625;-37
2021/12/29 15:38:24;;;;;;;332.12;250.25;;;21.50;52.60;;;;;;4341152;60;21077;-39
2021/12/29 15:43:26;;;;;;;311.95;239.70;;;21.50;52.60;;;;;;4344876;60;21584;-37
2021/12/29 15:48:26;;;;;;;310.52;238.45;;;21.50;52.60;;;;;;4338267;62;21637;-35
2021/12/29 15:53:29;;;;;;;313.17;239.10;;;21.50;52.70;;;;;;4380070;60;21085;-34
2021/12/29 15:58:31;;;;;;;300.45;238.15;;;21.50;52.90;;;;;;4338518;64;21661;-35
2021/12/29 16:03:32;;;;;;;321.40;246.40;;;21.50;53.10;;;;;;4346015;60;21506;-35
2021/12/29 16:08:33;;;;;;;325.65;247.60;;;21.40;53.10;;;;;;4342093;60;21060;-35
2021/12/29 16:13:35;;;;;;;314.15;235.23;;;21.40;53.10;;;;;;4353466;60;21529;-33
2021/12/29 16:18:38;;;;;;;310.05;238.15;;;21.40;53.20;;;;;;4353219;60;21633;-35
2021/12/29 16:23:39;;;;;;;304.95;235.00;;;21.30;53.10;;;;;;4339029;60;21555;-37
2021/12/29 16:28:40;;;;;;;304.30;233.20;;;21.30;53.30;;;;;;4369432;60;21056;-35
2021/12/29 16:33:41;;;;;;;296.23;233.93;;;21.30;53.30;;;;;;4355400;60;21035;-36
2021/12/29 16:38:42;;;;;;;303.62;237.25;;;21.20;53.20;;;;;;4389106;60;21063;-35
2021/12/29 16:43:42;;;;;;;310.15;240.93;;;21.20;53.20;;;;;;4377157;60;21069;-35
2021/12/29 16:48:44;;;;;;;294.80;232.20;;;21.20;53.20;;;;;;4359110;60;21148;-33
2021/12/29 16:53:51;;;;;;;307.48;240.62;;;21.20;53.20;;;;;;4339416;61;21109;-33
2021/12/29 16:58:53;;;;;;;;;;;21.20;53.30;;;;;;4362037;60;21553;-32
2021/12/29 17:03:53;;;;;;;305.90;240.62;;;21.10;53.20;;;;;;4346213;60;20131;-37
2021/12/29 17:08:54;;;;;;;298.08;233.80;;;21.10;53.20;;;;;;4364430;60;21670;-36
2021/12/29 17:13:55;;;;;;;294.67;231.75;;;21.10;53.30;;;;;;4362366;60;21055;-33
2021/12/29 17:19:01;;;;;;;296.20;234.95;;;21.10;53.20;;;;;;4347649;60;21099;-37
2021/12/29 17:24:02;;;;;;;295.00;237.05;;;21.10;53.20;;;;;;4341872;60;22314;-35
2021/12/29 17:29:05;;;;;;;292.50;229.77;;;21.00;53.20;;;;;;4362300;60;21127;-36
2021/12/29 17:34:08;;;;;;;279.92;218.95;;;21.00;53.20;;;;;;4347679;60;22020;-37
2021/12/29 17:39:09;;;;;;;297.60;233.60;;;21.00;53.20;;;;;;4386689;60;21680;-35
2021/12/29 17:44:10;;;;;;;292.25;231.32;;;21.00;53.10;;;;;;4350216;60;21061;-36
2021/12/29 17:49:12;;;;;;;299.70;236.40;;;21.00;53.10;;;;;;4358222;60;21537;-35
2021/12/29 17:54:13;;;;;;;283.05;225.35;;;21.00;53.10;;;;;;4379317;60;21585;-34
2021/12/29 17:59:14;;;;;;;289.63;230.37;;;21.00;53.10;;;;;;4350963;60;21158;-33
2021/12/29 18:04:15;;;;;;;295.00;234.23;;;21.00;53.10;;;;;;4364813;60;21108;-33
2021/12/29 18:09:17;;;;;;;297.63;235.45;;;21.00;53.10;;;;;;4339113;60;21135;-34
2021/12/29 18:14:20;;;;;;;281.42;225.20;;;21.00;53.20;;;;;;4359140;60;21522;-36
2021/12/29 18:19:20;;;;;;;287.40;228.75;;;21.00;53.10;;;;;;4360710;60;21601;-35
2021/12/29 18:24:21;;;;;;;291.10;233.82;;;20.90;53.00;;;;;;4382770;60;21059;-32
2021/12/29 18:29:22;;;;;;;286.35;225.10;;;20.90;53.00;;;;;;4380123;60;21585;-33
2021/12/29 18:34:25;;;;;;;275.13;224.15;;;20.90;53.10;;;;;;4338673;64;21272;-34
2021/12/29 18:39:26;;;;;;;286.70;229.07;;;20.90;53.10;;;;;;4373532;60;22177;-36
2021/12/29 18:44:27;;;;;;;282.50;223.93;;;20.90;53.70;;;;;;4346810;60;21163;-35
2021/12/29 18:49:29;;;;;;;269.15;215.12;;;20.90;53.00;;;;;;4353915;60;21680;-34
2021/12/29 18:54:29;;;;;;;291.67;230.55;;;20.90;53.00;;;;;;4352371;60;22202;-36
2021/12/29 18:59:30;;;;;;;286.87;231.05;;;20.90;53.00;;;;;;4347737;60;21156;-35
2021/12/29 19:04:31;;;;;;;275.10;220.20;;;20.90;53.00;;;;;;4337949;64;22253;-35
2021/12/29 19:09:32;;;;;;;273.10;221.25;;;20.90;53.00;;;;;;4342977;60;21122;-35
2021/12/29 19:14:37;;;;;;;281.67;224.00;;;20.90;53.00;;;;;;4346730;60;21044;-35
2021/12/29 19:19:40;;;;;;;274.15;223.73;;;20.90;53.00;;;;;;4348665;60;21694;-36
2021/12/29 19:24:41;;;;;;;278.83;223.40;;;20.90;52.90;;;;;;4344845;60;21582;-34
2021/12/29 19:29:42;;;;;;;276.73;224.32;;;20.80;52.90;;;;;;4340074;60;21075;-36
2021/12/29 19:34:43;;;;;;;268.60;217.57;;;20.80;52.90;;;;;;4347738;60;21112;-37
2021/12/29 19:39:44;;;;;;;277.92;220.60;;;20.80;52.90;;;;;;4338381;64;21055;-35
2021/12/29 19:44:47;;;;;;;271.62;219.00;;;20.80;52.90;;;;;;4358673;60;21168;-37
2021/12/29 19:49:49;;;;;;;259.37;212.05;;;20.80;52.90;;;;;;4351257;60;21071;-37
2021/12/29 19:54:51;;;;;;;268.58;219.13;;;20.80;52.80;;;;;;4353267;60;21059;-33
2021/12/29 19:59:52;;;;;;;265.85;216.80;;;20.80;52.80;;;;;;4365715;60;21123;-37
2021/12/29 20:04:53;;;;;;;260.38;211.23;;;20.80;52.80;;;;;;4353055;60;21112;-38
2021/12/29 20:09:54;;;;;;;258.10;211.55;;;20.80;52.90;;;;;;4341743;60;21064;-30
2021/12/29 20:14:55;;;;;;;269.60;213.40;;;20.80;52.80;;;;;;4386119;60;21517;-36
2021/12/29 20:19:56;;;;;;;253.02;204.32;;;20.80;52.80;;;;;;4365175;60;21630;-34
2021/12/29 20:24:57;;;;;;;257.10;205.77;;;20.80;52.70;;;;;;4342155;60;21067;-31
2021/12/29 20:29:58;;;;;;;252.05;203.50;;;20.80;52.70;;;;;;4348971;60;21506;-37
2021/12/29 20:35:00;;;;;;;251.60;201.43;;;20.80;52.70;;;;;;4365125;60;21048;-36
2021/12/29 20:40:03;;;;;;;251.35;203.62;;;20.70;52.70;;;;;;4342905;60;21618;-36
2021/12/29 20:45:05;;;;;;;235.63;190.70;;;20.80;52.70;;;;;;4357579;60;21066;-35
2021/12/29 20:50:09;;;;;;;248.45;197.93;;;20.80;52.60;;;;;;4347543;60;21052;-32
2021/12/29 20:55:12;;;;;;;241.38;187.57;;;20.70;52.60;;;;;;4339963;60;21028;-32
2021/12/29 21:00:14;;;;;;;248.00;199.07;;;20.80;52.60;;;;;;4343555;60;21051;-35
2021/12/29 21:05:15;;;;;;;243.82;196.23;;;20.70;52.50;;;;;;4374243;60;21160;-37
2021/12/29 21:10:24;;;;;;;228.45;185.90;;;20.80;52.60;;;;;;4338758;64;22096;-35
2021/12/29 21:15:27;;;;;;;240.57;192.37;;;20.70;52.50;;;;;;4338921;60;21059;-36
2021/12/29 21:20:29;;;;;;;236.15;188.02;;;20.70;52.50;;;;;;4338260;61;21098;-31
2021/12/29 21:25:31;;;;;;;237.12;189.60;;;20.70;52.40;;;;;;4340453;60;21140;-38
2021/12/29 21:30:34;;;;;;;225.02;179.85;;;20.70;53.00;;;;;;4349551;60;21526;-33
2021/12/29 21:35:35;;;;;;;220.15;178.45;;;20.70;52.40;;;;;;4339146;61;21501;-33
2021/12/29 21:40:36;;;;;;;226.00;180.52;;;20.70;52.40;;;;;;4352929;60;21056;-33
2021/12/29 21:45:38;;;;;;;227.25;181.27;;;20.70;52.30;;;;;;4355257;60;21505;-36
2021/12/29 21:50:41;;;;;;;220.35;174.68;;;20.70;52.40;;;;;;4339155;62;21139;-33
2021/12/29 21:55:43;;;;;;;222.65;179.40;;;20.70;52.30;;;;;;4362918;60;21050;-35
2021/12/29 22:00:45;;;;;;;212.75;168.87;;;20.70;52.30;;;;;;4360655;60;21083;-34
2021/12/29 22:05:46;;;;;;;219.48;175.75;;;20.70;52.20;;;;;;4367504;60;21629;-36
2021/12/29 22:10:48;;;;;;;214.40;169.77;;;20.70;52.20;;;;;;4357916;60;21063;-37
2021/12/29 22:15:51;;;;;;;213.95;171.07;;;20.70;52.20;;;;;;4355123;60;21569;-33
2021/12/29 22:20:52;;;;;;;208.15;165.82;;;20.70;52.20;;;;;;4347778;60;21521;-37
2021/12/29 22:25:54;;;;;;;208.32;168.82;;;20.70;52.20;;;;;;4362216;60;21059;-27
2021/12/29 22:30:57;;;;;;;204.27;164.32;;;20.70;52.10;;;;;;4338891;60;21135;-37
2021/12/29 22:35:59;;;;;;;208.20;166.27;;;20.70;52.10;;;;;;4343961;60;21067;-37
2021/12/29 22:41:01;;;;;;;206.82;161.05;;;20.70;52.10;;;;;;4342727;60;21149;-35
2021/12/29 22:46:03;;;;;;;198.30;155.12;;;20.70;52.00;;;;;;4360810;60;21051;-36
2021/12/29 22:51:05;;;;;;;201.95;158.10;;;20.70;52.10;;;;;;4370206;60;21111;-35
2021/12/29 22:56:07;;;;;;;205.65;163.18;;;20.70;52.00;;;;;;4362992;60;21143;-33
2021/12/29 23:01:24;;;;;;;206.13;164.25;;;20.70;52.00;;;;;;4349793;60;21044;-34
2021/12/29 23:06:26;;;;;;;196.95;155.20;;;20.70;52.00;;;;;;4358893;60;21059;-35
2021/12/29 23:11:28;;;;;;;192.23;153.07;;;20.70;52.00;;;;;;4344451;60;21193;-33
2021/12/29 23:16:31;;;;;;;196.35;154.55;;;20.70;51.90;;;;;;4339224;64;21674;-33
2021/12/29 23:21:33;;;;;;;191.48;150.77;;;20.70;51.90;;;;;;4411129;60;21124;-36
2021/12/29 23:35:14;;;;;;;193.68;152.82;;;20.70;51.90;;;;;;4347132;60;21505;-35
2021/12/29 23:40:15;;;;;;;191.50;149.00;;;20.60;51.80;;;;;;4357676;60;21114;-32
2021/12/29 23:45:16;;;;;;;187.68;148.02;;;20.60;51.80;;;;;;4345075;60;21629;-34
2021/12/29 23:50:17;;;;;;;184.98;143.65;;;20.60;51.80;;;;;;4340104;61;21553;-32
2021/12/29 23:55:18;;;;;;;185.12;144.93;;;20.60;51.80;;;;;;4351327;60;21070;-33
